createdAt,value
2023-03-29T00:00:36.414Z,72.46
2023-03-29T00:05:57.889Z,72.45
2023-03-29T00:11:02.061Z,72.89
2023-03-29T00:16:06.516Z,73.40
2023-03-29T00:21:10.695Z,73.59
2023-03-29T00:26:14.265Z,73.75
2023-03-29T00:31:18.961Z,73.69
2023-03-29T00:36:23.704Z,73.56
2023-03-29T00:41:27.545Z,73.85
2023-03-29T00:46:32.621Z,74.16
2023-03-29T00:51:41.700Z,74.31
2023-03-29T00:56:50.354Z,74.65
2023-03-29T01:02:03.705Z,74.76
2023-03-29T01:07:31.254Z,74.78
2023-03-29T01:12:47.202Z,74.80
2023-03-29T01:17:53.993Z,74.74
2023-03-29T01:23:40.610Z,74.82
2023-03-29T01:29:22.565Z,74.73
2023-03-29T01:34:51.988Z,74.88
2023-03-29T01:39:55.670Z,75.10
2023-03-29T01:45:20.274Z,75.14
2023-03-29T01:50:44.683Z,75.20
2023-03-29T01:55:57.278Z,75.46
2023-03-29T02:01:10.224Z,75.78
2023-03-29T02:06:21.740Z,75.88
2023-03-29T02:11:29.669Z,75.91
2023-03-29T02:16:39.378Z,75.96
2023-03-29T02:22:02.248Z,75.96
2023-03-29T02:27:06.370Z,76.10
2023-03-29T02:32:21.696Z,76.25
2023-03-29T02:37:30.577Z,76.27
2023-03-29T02:42:35.556Z,76.32
2023-03-29T02:47:47.760Z,76.40
2023-03-29T02:53:02.057Z,76.43
2023-03-29T02:58:08.801Z,76.54
2023-03-29T03:03:15.893Z,76.62
2023-03-29T03:08:20.219Z,76.69
2023-03-29T03:13:23.765Z,76.81
2023-03-29T03:18:28.153Z,77.01
2023-03-29T03:23:32.327Z,77.01
2023-03-29T03:28:35.933Z,77.07
2023-03-29T03:33:41.406Z,77.17
2023-03-29T03:38:45.585Z,77.40
2023-03-29T03:43:49.410Z,77.62
2023-03-29T03:48:53.095Z,77.80
2023-03-29T03:53:56.650Z,77.86
2023-03-29T03:59:00.202Z,77.87
2023-03-29T04:04:04.907Z,77.89
2023-03-29T04:09:09.742Z,77.93
2023-03-29T04:14:13.297Z,78.03
2023-03-29T04:19:17.191Z,78.06
2023-03-29T04:24:20.928Z,78.04
2023-03-29T04:29:24.613Z,78.08
2023-03-29T04:34:28.357Z,78.11
2023-03-29T04:39:34.387Z,78.14
2023-03-29T04:44:41.806Z,78.19
2023-03-29T04:49:46.202Z,78.18
2023-03-29T04:54:50.145Z,78.14
2023-03-29T04:59:54.174Z,78.11
2023-03-29T05:04:59.885Z,78.17
2023-03-29T05:10:08.464Z,78.17
2023-03-29T05:15:13.946Z,77.79
2023-03-29T05:20:19.034Z,77.24
2023-03-29T05:25:23.617Z,76.74
2023-03-29T05:30:27.237Z,76.67
2023-03-29T05:35:32.418Z,76.75
2023-03-29T05:40:36.221Z,76.71
2023-03-29T05:45:39.918Z,76.54
2023-03-29T05:50:52.643Z,76.36
2023-03-29T05:55:56.550Z,76.07
2023-03-29T06:01:00.909Z,75.78
2023-03-29T06:06:05.722Z,75.47
2023-03-29T06:11:13.663Z,75.08
2023-03-29T06:16:17.315Z,74.79
2023-03-29T06:21:22.336Z,74.60
2023-03-29T06:26:28.437Z,74.02
2023-03-29T06:31:32.331Z,73.42
2023-03-29T06:36:36.000Z,72.65
2023-03-29T06:41:39.813Z,72.13
2023-03-29T06:46:44.289Z,71.53
2023-03-29T06:51:49.206Z,71.21
2023-03-29T06:56:55.117Z,71.03
2023-03-29T07:01:59.058Z,70.67
2023-03-29T07:07:03.938Z,70.17
2023-03-29T07:12:09.289Z,69.61
2023-03-29T07:17:13.723Z,69.08
2023-03-29T07:22:17.416Z,69.28
2023-03-29T07:27:21.167Z,68.22
2023-03-29T07:32:25.084Z,68.01
2023-03-29T07:37:28.795Z,67.21
2023-03-29T07:42:32.423Z,66.44
2023-03-29T07:47:36.727Z,65.85
2023-03-29T07:52:41.226Z,65.16
2023-03-29T07:57:45.109Z,64.39
2023-03-29T08:02:52.789Z,64.39
2023-03-29T08:07:56.771Z,62.56
2023-03-29T08:13:01.389Z,60.58
2023-03-29T08:18:07.765Z,60.83
2023-03-29T08:23:11.740Z,60.96
2023-03-29T08:28:15.386Z,58.48
2023-03-29T08:33:19.721Z,56.49
2023-03-29T08:38:23.429Z,54.28
2023-03-29T08:43:51.898Z,50.58
2023-03-29T08:49:03.293Z,50.87
2023-03-29T08:54:17.561Z,50.81
2023-03-29T08:59:30.156Z,50.30
2023-03-29T09:04:36.872Z,49.11
2023-03-29T09:09:43.158Z,47.01
2023-03-29T09:15:11.966Z,45.02
2023-03-29T09:20:37.732Z,44.72
2023-03-29T09:26:10.383Z,43.15
2023-03-29T09:31:23.245Z,42.71
2023-03-29T09:36:46.808Z,43.23
2023-03-29T09:42:00.127Z,43.38
2023-03-29T09:47:17.617Z,42.80
2023-03-29T09:52:21.784Z,42.18
2023-03-29T09:57:27.729Z,42.63
2023-03-29T10:02:32.838Z,42.72
2023-03-29T10:07:46.653Z,42.53
2023-03-29T10:12:57.258Z,41.06
2023-03-29T10:18:12.132Z,39.72
2023-03-29T10:23:19.089Z,40.65
2023-03-29T10:28:23.341Z,38.56
2023-03-29T10:33:33.499Z,38.92
2023-03-29T10:38:38.515Z,36.13
2023-03-29T10:43:51.246Z,35.77
2023-03-29T10:49:10.742Z,35.70
2023-03-29T10:54:20.699Z,36.66
2023-03-29T10:59:28.832Z,36.33
2023-03-29T11:05:31.337Z,36.79
2023-03-29T11:11:01.154Z,37.08
2023-03-29T11:16:29.095Z,34.19
2023-03-29T11:22:05.791Z,35.21
2023-03-29T11:27:51.544Z,36.20
2023-03-29T11:33:46.463Z,36.15
2023-03-29T11:39:45.405Z,34.38
2023-03-29T11:44:55.213Z,33.84
2023-03-29T11:50:28.980Z,32.01
2023-03-29T11:55:38.415Z,31.88
2023-03-29T12:01:04.690Z,30.85
2023-03-29T12:06:15.843Z,30.04
2023-03-29T12:11:49.178Z,30.78
2023-03-29T12:17:05.715Z,30.76
2023-03-29T12:22:10.120Z,30.32
2023-03-29T12:27:47.789Z,30.97
2023-03-29T12:33:03.509Z,31.79
2023-03-29T12:38:37.740Z,30.76
2023-03-29T12:43:43.817Z,32.00
2023-03-29T12:48:58.115Z,31.92
2023-03-29T12:54:16.225Z,31.75
2023-03-29T12:59:45.489Z,32.16
2023-03-29T13:05:00.590Z,33.22
2023-03-29T13:10:38.282Z,32.31
2023-03-29T13:15:45.343Z,31.55
2023-03-29T13:21:30.193Z,32.76
2023-03-29T13:27:15.748Z,31.89
2023-03-29T13:32:41.580Z,32.38
2023-03-29T13:38:07.611Z,31.94
2023-03-29T13:43:31.397Z,31.67
2023-03-29T13:48:38.012Z,32.35
2023-03-29T13:53:52.111Z,32.74
2023-03-29T13:59:25.843Z,33.43
2023-03-29T14:04:49.344Z,33.62
2023-03-29T14:09:57.230Z,33.76
2023-03-29T14:15:07.082Z,33.18
2023-03-29T14:20:16.434Z,34.19
2023-03-29T14:25:23.320Z,34.31
2023-03-29T14:30:29.810Z,35.10
2023-03-29T14:35:33.971Z,34.83
2023-03-29T14:40:38.884Z,35.84
2023-03-29T14:45:42.917Z,35.41
2023-03-29T14:50:47.871Z,33.94
2023-03-29T14:55:53.950Z,32.44
2023-03-29T15:00:58.358Z,34.33
2023-03-29T15:06:05.253Z,35.24
2023-03-29T15:11:27.887Z,34.47
2023-03-29T15:16:33.187Z,34.51
2023-03-29T15:21:37.100Z,35.58
2023-03-29T15:26:41.417Z,37.23
2023-03-29T15:31:59.384Z,38.33
2023-03-29T15:37:04.635Z,39.46
2023-03-29T15:42:10.172Z,40.34
2023-03-29T15:47:14.132Z,40.81
2023-03-29T15:52:18.086Z,41.76
2023-03-29T15:57:22.326Z,42.28
2023-03-29T16:02:26.348Z,43.01
2023-03-29T16:07:30.493Z,43.78
2023-03-29T16:12:36.101Z,44.55
2023-03-29T16:17:39.944Z,44.94
2023-03-29T16:22:43.977Z,45.39
2023-03-29T16:27:47.625Z,45.96
2023-03-29T16:32:52.075Z,46.31
2023-03-29T16:37:56.268Z,46.82
2023-03-29T16:43:00.500Z,47.06
2023-03-29T16:48:05.600Z,47.54
2023-03-29T16:53:10.660Z,48.06
2023-03-29T16:58:15.781Z,48.72
2023-03-29T17:03:20.428Z,49.31
2023-03-29T17:08:24.197Z,49.74
2023-03-29T17:13:28.449Z,50.27
2023-03-29T17:18:32.346Z,50.58
2023-03-29T17:23:36.545Z,50.95
2023-03-29T17:28:41.296Z,51.40
2023-03-29T17:33:45.693Z,51.81
2023-03-29T17:38:51.316Z,52.19
2023-03-29T17:43:54.843Z,52.65
2023-03-29T17:49:01.830Z,52.94
2023-03-29T17:54:06.540Z,53.30
2023-03-29T17:59:12.880Z,53.51
2023-03-29T18:04:17.273Z,53.76
2023-03-29T18:09:21.274Z,53.87
2023-03-29T18:14:25.083Z,54.17
2023-03-29T18:19:29.221Z,54.24
2023-03-29T18:24:34.126Z,54.50
2023-03-29T18:29:38.250Z,54.55
2023-03-29T18:34:41.798Z,54.51
2023-03-29T18:39:51.958Z,54.32
2023-03-29T18:44:56.245Z,54.15
2023-03-29T18:50:04.668Z,54.29
2023-03-29T18:55:24.474Z,54.40
2023-03-29T19:01:04.123Z,54.83
2023-03-29T19:10:45.270Z,54.84
2023-03-29T19:15:52.253Z,54.83
2023-03-29T19:20:59.502Z,54.79
2023-03-29T19:26:14.127Z,54.76
2023-03-29T19:31:21.006Z,54.54
2023-03-29T19:36:25.113Z,54.46
2023-03-29T19:41:29.136Z,54.51
2023-03-29T19:46:33.616Z,54.62
2023-03-29T19:51:39.857Z,54.92
2023-03-29T19:56:44.519Z,55.23
2023-03-29T20:01:51.250Z,55.46
2023-03-29T20:06:55.499Z,56.42
2023-03-29T20:12:00.243Z,57.13
2023-03-29T20:17:04.828Z,57.62
2023-03-29T20:22:09.042Z,58.13
2023-03-29T20:27:12.674Z,58.64
2023-03-29T20:32:16.620Z,59.49
2023-03-29T20:37:23.324Z,59.90
2023-03-29T20:42:28.974Z,60.23
2023-03-29T20:47:42.916Z,60.26
2023-03-29T20:52:47.650Z,59.62
2023-03-29T20:58:06.751Z,58.82
2023-03-29T21:03:11.521Z,58.49
2023-03-29T21:08:17.925Z,58.12
2023-03-29T21:13:21.941Z,57.72
2023-03-29T21:18:25.673Z,57.41
2023-03-29T21:23:29.197Z,57.17
2023-03-29T21:28:33.359Z,57.03
2023-03-29T21:33:37.047Z,56.96
2023-03-29T21:38:40.779Z,56.87
2023-03-29T21:43:44.667Z,57.01
2023-03-29T21:48:48.273Z,57.17
2023-03-29T21:53:52.041Z,57.27
2023-03-29T21:58:56.117Z,57.61
2023-03-29T22:03:59.754Z,57.78
2023-03-29T22:09:03.665Z,57.65
2023-03-29T22:14:08.661Z,57.78
2023-03-29T22:19:13.213Z,57.90
2023-03-29T22:24:17.564Z,57.95
2023-03-29T22:29:21.196Z,58.03
2023-03-29T22:34:25.303Z,58.17
2023-03-29T22:39:30.151Z,58.34
2023-03-29T22:44:34.397Z,58.36
2023-03-29T22:49:37.942Z,58.56
2023-03-29T22:54:41.587Z,58.54
2023-03-29T22:59:45.221Z,58.47
2023-03-29T23:04:49.380Z,58.56
2023-03-29T23:09:53.156Z,58.72
2023-03-29T23:14:57.318Z,59.06
2023-03-29T23:20:02.309Z,59.44
2023-03-29T23:25:06.729Z,59.67
2023-03-29T23:30:12.114Z,59.88
2023-03-29T23:35:16.776Z,60.19
2023-03-29T23:40:21.157Z,60.42
2023-03-29T23:45:26.975Z,60.46
2023-03-29T23:50:30.653Z,60.71
2023-03-29T23:55:34.632Z,61.03
